sensor_id;sensor_type;location;lat;lon;timestamp;P1;durP1;ratioP1;P2;durP2;ratioP2
64986;SDS011;67903;52.108;9.358;2023-10-08T00:02:41;12.20;;;5.85;;
64986;SDS011;67903;52.108;9.358;2023-10-08T00:05:27;14.05;;;5.85;;
64986;SDS011;67903;52.108;9.358;2023-10-08T00:08:12;17.50;;;6.82;;
64986;SDS011;67903;52.108;9.358;2023-10-08T00:11:02;12.73;;;6.55;;
64986;SDS011;67903;52.108;9.358;2023-10-08T00:13:55;10.68;;;6.80;;
64986;SDS011;67903;52.108;9.358;2023-10-08T00:16:41;14.55;;;6.60;;
64986;SDS011;67903;52.108;9.358;2023-10-08T00:19:27;14.48;;;6.97;;
64986;SDS011;67903;52.108;9.358;2023-10-08T00:22:19;13.13;;;5.75;;
64986;SDS011;67903;52.108;9.358;2023-10-08T00:25:05;5.10;;;3.45;;
64986;SDS011;67903;52.108;9.358;2023-10-08T00:27:56;3.10;;;1.88;;
64986;SDS011;67903;52.108;9.358;2023-10-08T00:30:42;2.08;;;1.30;;
64986;SDS011;67903;52.108;9.358;2023-10-08T00:33:29;2.58;;;1.27;;
64986;SDS011;67903;52.108;9.358;2023-10-08T00:36:15;3.15;;;1.02;;
64986;SDS011;67903;52.108;9.358;2023-10-08T00:39:04;1.10;;;1.00;;
64986;SDS011;67903;52.108;9.358;2023-10-08T00:41:56;1.00;;;0.90;;
64986;SDS011;67903;52.108;9.358;2023-10-08T00:44:44;0.60;;;0.60;;
64986;SDS011;67903;52.108;9.358;2023-10-08T00:47:36;0.70;;;0.70;;
64986;SDS011;67903;52.108;9.358;2023-10-08T00:50:28;0.70;;;0.70;;
64986;SDS011;67903;52.108;9.358;2023-10-08T00:53:27;0.50;;;0.50;;
64986;SDS011;67903;52.108;9.358;2023-10-08T00:56:13;0.47;;;0.30;;
64986;SDS011;67903;52.108;9.358;2023-10-08T00:59:04;0.50;;;0.50;;
64986;SDS011;67903;52.108;9.358;2023-10-08T01:01:51;0.43;;;0.43;;
64986;SDS011;67903;52.108;9.358;2023-10-08T01:04:43;2.22;;;0.45;;
64986;SDS011;67903;52.108;9.358;2023-10-08T01:07:29;0.35;;;0.35;;
64986;SDS011;67903;52.108;9.358;2023-10-08T01:10:16;0.40;;;0.40;;
64986;SDS011;67903;52.108;9.358;2023-10-08T01:13:05;0.40;;;0.40;;
64986;SDS011;67903;52.108;9.358;2023-10-08T01:15:55;0.30;;;0.30;;
64986;SDS011;67903;52.108;9.358;2023-10-08T01:18:43;0.40;;;0.40;;
64986;SDS011;67903;52.108;9.358;2023-10-08T01:21:36;0.43;;;0.43;;
64986;SDS011;67903;52.108;9.358;2023-10-08T01:24:24;1.08;;;0.43;;
64986;SDS011;67903;52.108;9.358;2023-10-08T01:27:12;0.30;;;0.30;;
64986;SDS011;67903;52.108;9.358;2023-10-08T01:29:57;0.40;;;0.40;;
64986;SDS011;67903;52.108;9.358;2023-10-08T01:32:54;1.10;;;0.30;;
64986;SDS011;67903;52.108;9.358;2023-10-08T01:35:40;0.22;;;0.22;;
64986;SDS011;67903;52.108;9.358;2023-10-08T01:38:28;0.40;;;0.40;;
64986;SDS011;67903;52.108;9.358;2023-10-08T01:41:14;0.73;;;0.30;;
64986;SDS011;67903;52.108;9.358;2023-10-08T01:44:07;0.45;;;0.45;;
64986;SDS011;67903;52.108;9.358;2023-10-08T01:46:53;0.65;;;0.20;;
64986;SDS011;67903;52.108;9.358;2023-10-08T01:49:42;0.20;;;0.20;;
64986;SDS011;67903;52.108;9.358;2023-10-08T01:52:32;0.35;;;0.35;;
64986;SDS011;67903;52.108;9.358;2023-10-08T01:55:19;0.30;;;0.30;;
64986;SDS011;67903;52.108;9.358;2023-10-08T01:58:06;0.30;;;0.30;;
64986;SDS011;67903;52.108;9.358;2023-10-08T02:00:53;0.28;;;0.28;;
64986;SDS011;67903;52.108;9.358;2023-10-08T02:03:43;0.30;;;0.30;;
64986;SDS011;67903;52.108;9.358;2023-10-08T02:06:31;0.25;;;0.25;;
64986;SDS011;67903;52.108;9.358;2023-10-08T02:09:16;0.30;;;0.30;;
64986;SDS011;67903;52.108;9.358;2023-10-08T02:12:02;0.70;;;0.30;;
64986;SDS011;67903;52.108;9.358;2023-10-08T02:14:48;0.40;;;0.40;;
64986;SDS011;67903;52.108;9.358;2023-10-08T02:17:34;0.40;;;0.40;;
64986;SDS011;67903;52.108;9.358;2023-10-08T02:20:20;0.52;;;0.50;;
64986;SDS011;67903;52.108;9.358;2023-10-08T02:23:06;0.77;;;0.45;;
64986;SDS011;67903;52.108;9.358;2023-10-08T02:25:52;0.50;;;0.50;;
64986;SDS011;67903;52.108;9.358;2023-10-08T02:28:40;0.50;;;0.50;;
64986;SDS011;67903;52.108;9.358;2023-10-08T02:31:25;0.82;;;0.60;;
64986;SDS011;67903;52.108;9.358;2023-10-08T02:34:11;1.80;;;0.70;;
64986;SDS011;67903;52.108;9.358;2023-10-08T02:36:57;2.15;;;0.90;;
64986;SDS011;67903;52.108;9.358;2023-10-08T02:39:42;3.75;;;1.00;;
64986;SDS011;67903;52.108;9.358;2023-10-08T02:42:28;3.30;;;1.00;;
64986;SDS011;67903;52.108;9.358;2023-10-08T02:45:14;3.35;;;0.93;;
64986;SDS011;67903;52.108;9.358;2023-10-08T02:48:01;3.42;;;1.20;;
64986;SDS011;67903;52.108;9.358;2023-10-08T02:50:56;2.85;;;1.17;;
64986;SDS011;67903;52.108;9.358;2023-10-08T02:53:52;5.55;;;1.15;;
64986;SDS011;67903;52.108;9.358;2023-10-08T02:56:37;2.47;;;1.20;;
64986;SDS011;67903;52.108;9.358;2023-10-08T02:59:28;3.97;;;1.15;;
64986;SDS011;67903;52.108;9.358;2023-10-08T03:02:28;3.38;;;1.63;;
64986;SDS011;67903;52.108;9.358;2023-10-08T03:05:14;2.35;;;1.20;;
64986;SDS011;67903;52.108;9.358;2023-10-08T03:08:02;4.10;;;1.35;;
64986;SDS011;67903;52.108;9.358;2023-10-08T03:10:55;3.17;;;1.10;;
64986;SDS011;67903;52.108;9.358;2023-10-08T03:13:43;5.60;;;1.30;;
64986;SDS011;67903;52.108;9.358;2023-10-08T03:16:32;3.63;;;1.35;;
64986;SDS011;67903;52.108;9.358;2023-10-08T03:19:21;4.10;;;1.27;;
64986;SDS011;67903;52.108;9.358;2023-10-08T03:22:07;2.97;;;1.30;;
64986;SDS011;67903;52.108;9.358;2023-10-08T03:24:55;2.72;;;1.35;;
64986;SDS011;67903;52.108;9.358;2023-10-08T03:27:43;8.57;;;1.33;;
64986;SDS011;67903;52.108;9.358;2023-10-08T03:30:29;3.90;;;1.33;;
64986;SDS011;67903;52.108;9.358;2023-10-08T03:33:18;5.18;;;1.30;;
64986;SDS011;67903;52.108;9.358;2023-10-08T03:36:13;3.70;;;1.38;;
64986;SDS011;67903;52.108;9.358;2023-10-08T03:39:18;3.13;;;1.50;;
64986;SDS011;67903;52.108;9.358;2023-10-08T03:42:04;4.18;;;1.75;;
64986;SDS011;67903;52.108;9.358;2023-10-08T03:44:54;2.47;;;1.17;;
64986;SDS011;67903;52.108;9.358;2023-10-08T03:47:41;4.47;;;1.20;;
64986;SDS011;67903;52.108;9.358;2023-10-08T03:50:32;3.20;;;1.30;;
64986;SDS011;67903;52.108;9.358;2023-10-08T03:53:26;2.60;;;1.20;;
64986;SDS011;67903;52.108;9.358;2023-10-08T03:56:16;3.47;;;1.15;;
64986;SDS011;67903;52.108;9.358;2023-10-08T03:59:04;4.72;;;1.08;;
64986;SDS011;67903;52.108;9.358;2023-10-08T04:02:09;6.20;;;1.70;;
64986;SDS011;67903;52.108;9.358;2023-10-08T04:05:08;1.50;;;1.05;;
64986;SDS011;67903;52.108;9.358;2023-10-08T04:08:07;4.32;;;1.83;;
64986;SDS011;67903;52.108;9.358;2023-10-08T04:11:12;2.60;;;1.25;;
64986;SDS011;67903;52.108;9.358;2023-10-08T04:14:15;3.17;;;1.30;;
64986;SDS011;67903;52.108;9.358;2023-10-08T04:17:04;6.45;;;1.48;;
64986;SDS011;67903;52.108;9.358;2023-10-08T04:19:49;3.60;;;1.48;;
64986;SDS011;67903;52.108;9.358;2023-10-08T04:22:36;3.35;;;1.67;;
64986;SDS011;67903;52.108;9.358;2023-10-08T04:25:21;5.32;;;1.65;;
64986;SDS011;67903;52.108;9.358;2023-10-08T04:28:07;3.53;;;1.40;;
64986;SDS011;67903;52.108;9.358;2023-10-08T04:30:58;3.25;;;1.42;;
64986;SDS011;67903;52.108;9.358;2023-10-08T04:33:59;2.70;;;1.60;;
64986;SDS011;67903;52.108;9.358;2023-10-08T04:36:46;5.30;;;1.50;;
64986;SDS011;67903;52.108;9.358;2023-10-08T04:39:31;3.60;;;1.63;;
64986;SDS011;67903;52.108;9.358;2023-10-08T04:42:17;3.42;;;1.30;;
64986;SDS011;67903;52.108;9.358;2023-10-08T04:45:11;3.80;;;1.50;;
64986;SDS011;67903;52.108;9.358;2023-10-08T04:47:59;4.60;;;1.85;;
64986;SDS011;67903;52.108;9.358;2023-10-08T04:50:44;3.83;;;1.80;;
64986;SDS011;67903;52.108;9.358;2023-10-08T04:53:30;2.70;;;1.90;;
64986;SDS011;67903;52.108;9.358;2023-10-08T04:56:18;4.00;;;1.40;;
64986;SDS011;67903;52.108;9.358;2023-10-08T04:59:03;4.55;;;1.60;;
64986;SDS011;67903;52.108;9.358;2023-10-08T05:01:50;3.50;;;1.17;;
64986;SDS011;67903;52.108;9.358;2023-10-08T05:04:56;4.05;;;1.65;;
64986;SDS011;67903;52.108;9.358;2023-10-08T05:07:56;4.13;;;1.67;;
64986;SDS011;67903;52.108;9.358;2023-10-08T05:11:03;3.65;;;1.77;;
64986;SDS011;67903;52.108;9.358;2023-10-08T05:14:00;5.03;;;1.58;;
64986;SDS011;67903;52.108;9.358;2023-10-08T05:17:03;4.95;;;1.80;;
64986;SDS011;67903;52.108;9.358;2023-10-08T05:20:03;3.10;;;1.40;;
64986;SDS011;67903;52.108;9.358;2023-10-08T05:22:52;6.03;;;1.70;;
64986;SDS011;67903;52.108;9.358;2023-10-08T05:25:56;4.47;;;1.58;;
64986;SDS011;67903;52.108;9.358;2023-10-08T05:28:51;4.07;;;1.95;;
64986;SDS011;67903;52.108;9.358;2023-10-08T05:31:46;3.75;;;1.55;;
64986;SDS011;67903;52.108;9.358;2023-10-08T05:34:38;5.30;;;1.33;;
64986;SDS011;67903;52.108;9.358;2023-10-08T05:37:35;3.83;;;1.75;;
64986;SDS011;67903;52.108;9.358;2023-10-08T05:40:26;3.85;;;1.70;;
64986;SDS011;67903;52.108;9.358;2023-10-08T05:43:34;3.50;;;1.50;;
64986;SDS011;67903;52.108;9.358;2023-10-08T05:46:23;2.72;;;1.23;;
64986;SDS011;67903;52.108;9.358;2023-10-08T05:49:10;5.45;;;1.85;;
64986;SDS011;67903;52.108;9.358;2023-10-08T05:51:55;4.50;;;1.40;;
64986;SDS011;67903;52.108;9.358;2023-10-08T05:54:41;5.65;;;1.80;;
64986;SDS011;67903;52.108;9.358;2023-10-08T05:57:59;5.50;;;1.80;;
64986;SDS011;67903;52.108;9.358;2023-10-08T06:00:58;3.53;;;1.80;;
64986;SDS011;67903;52.108;9.358;2023-10-08T06:03:53;5.28;;;2.28;;
64986;SDS011;67903;52.108;9.358;2023-10-08T06:06:48;4.97;;;1.70;;
64986;SDS011;67903;52.108;9.358;2023-10-08T06:09:53;4.35;;;1.60;;
64986;SDS011;67903;52.108;9.358;2023-10-08T06:13:02;4.60;;;1.58;;
64986;SDS011;67903;52.108;9.358;2023-10-08T06:16:00;4.97;;;1.90;;
64986;SDS011;67903;52.108;9.358;2023-10-08T06:18:46;7.03;;;1.77;;
64986;SDS011;67903;52.108;9.358;2023-10-08T06:21:32;6.57;;;2.00;;
64986;SDS011;67903;52.108;9.358;2023-10-08T06:24:18;4.22;;;1.60;;
64986;SDS011;67903;52.108;9.358;2023-10-08T06:27:05;3.47;;;1.58;;
64986;SDS011;67903;52.108;9.358;2023-10-08T06:29:51;4.35;;;1.70;;
64986;SDS011;67903;52.108;9.358;2023-10-08T06:32:40;5.05;;;1.80;;
64986;SDS011;67903;52.108;9.358;2023-10-08T06:35:25;2.97;;;1.52;;
64986;SDS011;67903;52.108;9.358;2023-10-08T06:38:13;3.85;;;1.58;;
64986;SDS011;67903;52.108;9.358;2023-10-08T06:41:00;3.80;;;1.90;;
64986;SDS011;67903;52.108;9.358;2023-10-08T06:44:28;4.28;;;1.90;;
64986;SDS011;67903;52.108;9.358;2023-10-08T06:47:14;4.13;;;1.50;;
64986;SDS011;67903;52.108;9.358;2023-10-08T06:50:01;4.25;;;1.70;;
64986;SDS011;67903;52.108;9.358;2023-10-08T06:52:49;3.72;;;1.50;;
64986;SDS011;67903;52.108;9.358;2023-10-08T06:55:35;4.07;;;1.50;;
64986;SDS011;67903;52.108;9.358;2023-10-08T06:58:20;4.45;;;1.40;;
64986;SDS011;67903;52.108;9.358;2023-10-08T07:01:06;3.53;;;1.52;;
64986;SDS011;67903;52.108;9.358;2023-10-08T07:03:54;2.75;;;1.80;;
64986;SDS011;67903;52.108;9.358;2023-10-08T07:06:49;3.85;;;1.88;;
64986;SDS011;67903;52.108;9.358;2023-10-08T07:09:36;5.45;;;1.88;;
64986;SDS011;67903;52.108;9.358;2023-10-08T07:12:21;2.72;;;1.77;;
64986;SDS011;67903;52.108;9.358;2023-10-08T07:15:10;6.15;;;1.60;;
64986;SDS011;67903;52.108;9.358;2023-10-08T07:17:57;4.43;;;1.75;;
64986;SDS011;67903;52.108;9.358;2023-10-08T07:20:53;3.10;;;1.30;;
64986;SDS011;67903;52.108;9.358;2023-10-08T07:23:45;5.65;;;1.75;;
64986;SDS011;67903;52.108;9.358;2023-10-08T07:26:44;2.72;;;1.20;;
64986;SDS011;67903;52.108;9.358;2023-10-08T07:29:32;5.35;;;1.60;;
64986;SDS011;67903;52.108;9.358;2023-10-08T07:32:18;4.32;;;1.60;;
64986;SDS011;67903;52.108;9.358;2023-10-08T07:35:07;4.00;;;1.80;;
64986;SDS011;67903;52.108;9.358;2023-10-08T07:38:05;3.55;;;1.80;;
64986;SDS011;67903;52.108;9.358;2023-10-08T07:40:55;5.80;;;1.88;;
64986;SDS011;67903;52.108;9.358;2023-10-08T07:43:40;5.80;;;1.60;;
64986;SDS011;67903;52.108;9.358;2023-10-08T07:46:29;3.72;;;1.48;;
64986;SDS011;67903;52.108;9.358;2023-10-08T07:49:14;4.10;;;1.73;;
64986;SDS011;67903;52.108;9.358;2023-10-08T07:52:00;3.05;;;1.77;;
64986;SDS011;67903;52.108;9.358;2023-10-08T07:54:45;3.65;;;1.65;;
64986;SDS011;67903;52.108;9.358;2023-10-08T07:57:32;7.95;;;2.30;;
64986;SDS011;67903;52.108;9.358;2023-10-08T08:00:18;3.60;;;1.55;;
64986;SDS011;67903;52.108;9.358;2023-10-08T08:03:08;6.35;;;1.58;;
64986;SDS011;67903;52.108;9.358;2023-10-08T08:05:54;5.53;;;1.98;;
64986;SDS011;67903;52.108;9.358;2023-10-08T08:08:40;7.13;;;1.90;;
64986;SDS011;67903;52.108;9.358;2023-10-08T08:11:26;5.22;;;1.80;;
64986;SDS011;67903;52.108;9.358;2023-10-08T08:14:15;6.15;;;1.75;;
64986;SDS011;67903;52.108;9.358;2023-10-08T08:17:10;2.35;;;1.70;;
64986;SDS011;67903;52.108;9.358;2023-10-08T08:19:58;3.50;;;1.60;;
64986;SDS011;67903;52.108;9.358;2023-10-08T08:22:51;6.22;;;1.80;;
64986;SDS011;67903;52.108;9.358;2023-10-08T08:25:40;3.30;;;2.35;;
64986;SDS011;67903;52.108;9.358;2023-10-08T08:28:45;5.43;;;1.92;;
64986;SDS011;67903;52.108;9.358;2023-10-08T08:31:31;3.85;;;1.80;;
64986;SDS011;67903;52.108;9.358;2023-10-08T08:34:17;3.90;;;1.58;;
64986;SDS011;67903;52.108;9.358;2023-10-08T08:37:04;5.65;;;1.70;;
64986;SDS011;67903;52.108;9.358;2023-10-08T08:39:50;3.55;;;1.58;;
64986;SDS011;67903;52.108;9.358;2023-10-08T08:42:37;3.90;;;1.90;;
64986;SDS011;67903;52.108;9.358;2023-10-08T08:45:23;6.10;;;2.20;;
64986;SDS011;67903;52.108;9.358;2023-10-08T08:48:12;5.20;;;2.03;;
64986;SDS011;67903;52.108;9.358;2023-10-08T08:50:59;4.50;;;2.00;;
64986;SDS011;67903;52.108;9.358;2023-10-08T08:53:45;3.60;;;1.80;;
64986;SDS011;67903;52.108;9.358;2023-10-08T08:56:35;5.93;;;2.10;;
64986;SDS011;67903;52.108;9.358;2023-10-08T08:59:25;3.10;;;1.40;;
64986;SDS011;67903;52.108;9.358;2023-10-08T09:02:11;5.57;;;1.77;;
64986;SDS011;67903;52.108;9.358;2023-10-08T09:04:59;5.60;;;2.28;;
64986;SDS011;67903;52.108;9.358;2023-10-08T09:07:58;7.22;;;1.80;;
64986;SDS011;67903;52.108;9.358;2023-10-08T09:10:48;3.83;;;1.70;;
64986;SDS011;67903;52.108;9.358;2023-10-08T09:13:37;3.60;;;1.90;;
64986;SDS011;67903;52.108;9.358;2023-10-08T09:16:22;3.67;;;1.80;;
64986;SDS011;67903;52.108;9.358;2023-10-08T09:19:08;7.68;;;2.22;;
64986;SDS011;67903;52.108;9.358;2023-10-08T09:24:53;4.78;;;1.70;;
64986;SDS011;67903;52.108;9.358;2023-10-08T09:27:39;3.60;;;1.90;;
64986;SDS011;67903;52.108;9.358;2023-10-08T09:30:31;4.20;;;1.45;;
64986;SDS011;67903;52.108;9.358;2023-10-08T09:33:21;2.80;;;1.35;;
64986;SDS011;67903;52.108;9.358;2023-10-08T09:36:07;4.38;;;1.95;;
64986;SDS011;67903;52.108;9.358;2023-10-08T09:38:55;4.45;;;1.70;;
64986;SDS011;67903;52.108;9.358;2023-10-08T09:41:47;4.15;;;1.65;;
64986;SDS011;67903;52.108;9.358;2023-10-08T09:44:33;5.68;;;1.70;;
64986;SDS011;67903;52.108;9.358;2023-10-08T09:47:22;3.60;;;1.52;;
64986;SDS011;67903;52.108;9.358;2023-10-08T09:50:11;3.05;;;1.20;;
64986;SDS011;67903;52.108;9.358;2023-10-08T09:53:10;4.15;;;1.73;;
64986;SDS011;67903;52.108;9.358;2023-10-08T09:56:07;5.63;;;1.58;;
64986;SDS011;67903;52.108;9.358;2023-10-08T09:59:03;3.88;;;1.65;;
64986;SDS011;67903;52.108;9.358;2023-10-08T10:01:48;5.97;;;1.67;;
64986;SDS011;67903;52.108;9.358;2023-10-08T10:04:34;3.67;;;1.50;;
64986;SDS011;67903;52.108;9.358;2023-10-08T10:07:20;4.97;;;1.63;;
64986;SDS011;67903;52.108;9.358;2023-10-08T10:10:08;4.72;;;1.67;;
64986;SDS011;67903;52.108;9.358;2023-10-08T10:13:11;4.45;;;1.63;;
64986;SDS011;67903;52.108;9.358;2023-10-08T10:15:56;5.35;;;1.50;;
64986;SDS011;67903;52.108;9.358;2023-10-08T10:18:44;7.00;;;3.08;;
64986;SDS011;67903;52.108;9.358;2023-10-08T10:21:33;4.18;;;2.15;;
64986;SDS011;67903;52.108;9.358;2023-10-08T10:24:22;4.30;;;1.80;;
64986;SDS011;67903;52.108;9.358;2023-10-08T10:27:17;4.10;;;1.63;;
64986;SDS011;67903;52.108;9.358;2023-10-08T10:30:03;4.18;;;1.58;;
64986;SDS011;67903;52.108;9.358;2023-10-08T10:33:00;4.13;;;1.83;;
64986;SDS011;67903;52.108;9.358;2023-10-08T10:35:52;2.08;;;1.27;;
64986;SDS011;67903;52.108;9.358;2023-10-08T10:38:39;3.55;;;1.90;;
64986;SDS011;67903;52.108;9.358;2023-10-08T10:41:27;6.85;;;2.30;;
64986;SDS011;67903;52.108;9.358;2023-10-08T10:44:13;3.97;;;1.60;;
64986;SDS011;67903;52.108;9.358;2023-10-08T10:46:59;2.85;;;1.10;;
64986;SDS011;67903;52.108;9.358;2023-10-08T10:50:01;5.10;;;1.75;;
64986;SDS011;67903;52.108;9.358;2023-10-08T10:52:52;4.97;;;1.80;;
64986;SDS011;67903;52.108;9.358;2023-10-08T10:55:39;2.35;;;1.38;;
64986;SDS011;67903;52.108;9.358;2023-10-08T10:58:32;3.72;;;1.50;;
64986;SDS011;67903;52.108;9.358;2023-10-08T11:01:27;3.67;;;1.70;;
64986;SDS011;67903;52.108;9.358;2023-10-08T11:04:29;3.20;;;1.50;;
64986;SDS011;67903;52.108;9.358;2023-10-08T11:07:19;4.72;;;1.92;;
64986;SDS011;67903;52.108;9.358;2023-10-08T11:10:06;3.05;;;1.63;;
64986;SDS011;67903;52.108;9.358;2023-10-08T11:12:55;5.68;;;1.65;;
64986;SDS011;67903;52.108;9.358;2023-10-08T11:15:45;4.47;;;1.63;;
64986;SDS011;67903;52.108;9.358;2023-10-08T11:18:35;3.90;;;1.95;;
64986;SDS011;67903;52.108;9.358;2023-10-08T11:21:26;5.68;;;1.60;;
64986;SDS011;67903;52.108;9.358;2023-10-08T11:24:29;3.38;;;1.45;;
64986;SDS011;67903;52.108;9.358;2023-10-08T11:27:18;6.55;;;1.75;;
64986;SDS011;67903;52.108;9.358;2023-10-08T11:30:22;6.45;;;2.00;;
64986;SDS011;67903;52.108;9.358;2023-10-08T11:33:08;4.40;;;1.58;;
64986;SDS011;67903;52.108;9.358;2023-10-08T11:36:00;5.22;;;1.85;;
64986;SDS011;67903;52.108;9.358;2023-10-08T11:38:47;2.90;;;1.75;;
64986;SDS011;67903;52.108;9.358;2023-10-08T11:41:33;3.40;;;1.35;;
64986;SDS011;67903;52.108;9.358;2023-10-08T11:44:35;4.15;;;1.60;;
64986;SDS011;67903;52.108;9.358;2023-10-08T11:47:22;2.80;;;1.67;;
64986;SDS011;67903;52.108;9.358;2023-10-08T11:50:07;3.95;;;2.25;;
64986;SDS011;67903;52.108;9.358;2023-10-08T11:53:00;6.00;;;2.28;;
64986;SDS011;67903;52.108;9.358;2023-10-08T11:55:50;4.38;;;1.80;;
64986;SDS011;67903;52.108;9.358;2023-10-08T11:58:41;6.32;;;1.92;;
64986;SDS011;67903;52.108;9.358;2023-10-08T12:01:29;3.42;;;1.65;;
64986;SDS011;67903;52.108;9.358;2023-10-08T12:04:17;4.50;;;1.83;;
64986;SDS011;67903;52.108;9.358;2023-10-08T12:07:04;6.25;;;1.80;;
64986;SDS011;67903;52.108;9.358;2023-10-08T12:09:53;3.58;;;1.30;;
64986;SDS011;67903;52.108;9.358;2023-10-08T12:12:39;3.28;;;1.30;;
64986;SDS011;67903;52.108;9.358;2023-10-08T12:15:25;2.85;;;1.48;;
64986;SDS011;67903;52.108;9.358;2023-10-08T12:18:23;5.03;;;1.42;;
64986;SDS011;67903;52.108;9.358;2023-10-08T12:21:15;5.82;;;1.95;;
64986;SDS011;67903;52.108;9.358;2023-10-08T12:24:02;5.45;;;1.58;;
64986;SDS011;67903;52.108;9.358;2023-10-08T12:26:50;2.28;;;1.20;;
64986;SDS011;67903;52.108;9.358;2023-10-08T12:29:36;3.65;;;1.67;;
64986;SDS011;67903;52.108;9.358;2023-10-08T12:32:23;2.95;;;1.58;;
64986;SDS011;67903;52.108;9.358;2023-10-08T12:35:11;5.90;;;1.55;;
64986;SDS011;67903;52.108;9.358;2023-10-08T12:38:00;3.42;;;1.40;;
64986;SDS011;67903;52.108;9.358;2023-10-08T12:40:45;3.05;;;1.50;;
64986;SDS011;67903;52.108;9.358;2023-10-08T12:43:38;5.13;;;1.40;;
64986;SDS011;67903;52.108;9.358;2023-10-08T12:46:24;3.40;;;1.33;;
64986;SDS011;67903;52.108;9.358;2023-10-08T12:49:10;2.67;;;1.27;;
64986;SDS011;67903;52.108;9.358;2023-10-08T12:51:56;3.78;;;1.48;;
64986;SDS011;67903;52.108;9.358;2023-10-08T12:54:43;5.45;;;1.88;;
64986;SDS011;67903;52.108;9.358;2023-10-08T12:57:30;3.22;;;1.45;;
64986;SDS011;67903;52.108;9.358;2023-10-08T13:00:19;6.38;;;1.70;;
64986;SDS011;67903;52.108;9.358;2023-10-08T13:03:08;4.05;;;1.55;;
64986;SDS011;67903;52.108;9.358;2023-10-08T13:06:00;3.55;;;1.40;;
64986;SDS011;67903;52.108;9.358;2023-10-08T13:08:49;3.65;;;1.40;;
64986;SDS011;67903;52.108;9.358;2023-10-08T13:11:38;25.77;;;18.83;;
64986;SDS011;67903;52.108;9.358;2023-10-08T13:14:25;14.57;;;9.52;;
64986;SDS011;67903;52.108;9.358;2023-10-08T13:17:10;5.45;;;1.70;;
64986;SDS011;67903;52.108;9.358;2023-10-08T13:19:56;3.58;;;1.30;;
64986;SDS011;67903;52.108;9.358;2023-10-08T13:22:41;5.30;;;1.55;;
64986;SDS011;67903;52.108;9.358;2023-10-08T13:25:28;2.55;;;1.40;;
64986;SDS011;67903;52.108;9.358;2023-10-08T13:28:18;4.82;;;1.80;;
64986;SDS011;67903;52.108;9.358;2023-10-08T13:31:05;3.67;;;1.67;;
64986;SDS011;67903;52.108;9.358;2023-10-08T13:33:57;2.25;;;1.30;;
64986;SDS011;67903;52.108;9.358;2023-10-08T13:36:45;4.28;;;1.40;;
64986;SDS011;67903;52.108;9.358;2023-10-08T13:39:33;3.20;;;1.42;;
64986;SDS011;67903;52.108;9.358;2023-10-08T13:42:20;3.83;;;1.45;;
64986;SDS011;67903;52.108;9.358;2023-10-08T13:45:06;4.68;;;1.55;;
64986;SDS011;67903;52.108;9.358;2023-10-08T13:47:53;4.40;;;1.60;;
64986;SDS011;67903;52.108;9.358;2023-10-08T13:50:41;3.95;;;1.92;;
64986;SDS011;67903;52.108;9.358;2023-10-08T13:53:30;3.78;;;1.83;;
64986;SDS011;67903;52.108;9.358;2023-10-08T13:56:16;3.33;;;1.40;;
64986;SDS011;67903;52.108;9.358;2023-10-08T13:59:04;3.35;;;1.50;;
64986;SDS011;67903;52.108;9.358;2023-10-08T14:01:59;3.58;;;1.90;;
64986;SDS011;67903;52.108;9.358;2023-10-08T14:04:47;3.15;;;1.40;;
64986;SDS011;67903;52.108;9.358;2023-10-08T14:07:35;4.63;;;1.40;;
64986;SDS011;67903;52.108;9.358;2023-10-08T14:10:22;2.20;;;1.40;;
64986;SDS011;67903;52.108;9.358;2023-10-08T14:13:14;3.17;;;1.30;;
64986;SDS011;67903;52.108;9.358;2023-10-08T14:16:04;2.90;;;1.50;;
64986;SDS011;67903;52.108;9.358;2023-10-08T14:18:54;3.25;;;1.40;;
64986;SDS011;67903;52.108;9.358;2023-10-08T14:21:40;5.10;;;1.92;;
64986;SDS011;67903;52.108;9.358;2023-10-08T14:24:35;2.92;;;1.10;;
64986;SDS011;67903;52.108;9.358;2023-10-08T14:27:27;5.05;;;1.52;;
64986;SDS011;67903;52.108;9.358;2023-10-08T14:30:24;3.63;;;1.88;;
64986;SDS011;67903;52.108;9.358;2023-10-08T14:33:10;3.60;;;1.58;;
64986;SDS011;67903;52.108;9.358;2023-10-08T14:36:08;3.17;;;1.52;;
64986;SDS011;67903;52.108;9.358;2023-10-08T14:39:13;4.88;;;1.90;;
64986;SDS011;67903;52.108;9.358;2023-10-08T14:42:17;3.05;;;1.77;;
64986;SDS011;67903;52.108;9.358;2023-10-08T14:45:23;4.15;;;1.60;;
64986;SDS011;67903;52.108;9.358;2023-10-08T14:48:11;4.50;;;1.92;;
64986;SDS011;67903;52.108;9.358;2023-10-08T14:50:58;3.47;;;1.55;;
64986;SDS011;67903;52.108;9.358;2023-10-08T14:53:45;4.15;;;1.77;;
64986;SDS011;67903;52.108;9.358;2023-10-08T14:56:31;3.38;;;2.05;;
64986;SDS011;67903;52.108;9.358;2023-10-08T14:59:18;2.95;;;1.83;;
64986;SDS011;67903;52.108;9.358;2023-10-08T15:02:05;3.20;;;1.77;;
64986;SDS011;67903;52.108;9.358;2023-10-08T15:04:52;4.65;;;1.70;;
64986;SDS011;67903;52.108;9.358;2023-10-08T15:07:37;2.67;;;1.70;;
64986;SDS011;67903;52.108;9.358;2023-10-08T15:10:23;3.38;;;1.95;;
64986;SDS011;67903;52.108;9.358;2023-10-08T15:13:10;3.42;;;1.77;;
64986;SDS011;67903;52.108;9.358;2023-10-08T15:15:56;3.08;;;1.90;;
64986;SDS011;67903;52.108;9.358;2023-10-08T15:18:44;2.83;;;1.48;;
64986;SDS011;67903;52.108;9.358;2023-10-08T15:21:30;4.35;;;1.85;;
64986;SDS011;67903;52.108;9.358;2023-10-08T15:24:20;2.88;;;1.60;;
64986;SDS011;67903;52.108;9.358;2023-10-08T15:27:07;2.42;;;1.60;;
64986;SDS011;67903;52.108;9.358;2023-10-08T15:29:55;3.53;;;1.58;;
64986;SDS011;67903;52.108;9.358;2023-10-08T15:32:41;4.72;;;1.45;;
64986;SDS011;67903;52.108;9.358;2023-10-08T15:35:32;2.92;;;1.65;;
64986;SDS011;67903;52.108;9.358;2023-10-08T15:38:18;4.38;;;1.60;;
64986;SDS011;67903;52.108;9.358;2023-10-08T15:41:03;2.42;;;1.50;;
64986;SDS011;67903;52.108;9.358;2023-10-08T15:43:50;2.75;;;1.40;;
64986;SDS011;67903;52.108;9.358;2023-10-08T15:46:36;2.55;;;1.65;;
64986;SDS011;67903;52.108;9.358;2023-10-08T15:49:22;3.22;;;1.80;;
64986;SDS011;67903;52.108;9.358;2023-10-08T15:52:07;2.88;;;1.75;;
64986;SDS011;67903;52.108;9.358;2023-10-08T15:54:53;3.35;;;1.77;;
64986;SDS011;67903;52.108;9.358;2023-10-08T15:57:39;5.55;;;2.00;;
64986;SDS011;67903;52.108;9.358;2023-10-08T16:00:25;4.25;;;1.95;;
64986;SDS011;67903;52.108;9.358;2023-10-08T16:03:12;4.00;;;1.80;;
64986;SDS011;67903;52.108;9.358;2023-10-08T16:05:58;5.15;;;1.92;;
64986;SDS011;67903;52.108;9.358;2023-10-08T16:08:43;4.55;;;1.77;;
64986;SDS011;67903;52.108;9.358;2023-10-08T16:11:29;3.83;;;1.92;;
64986;SDS011;67903;52.108;9.358;2023-10-08T16:14:15;7.13;;;1.90;;
64986;SDS011;67903;52.108;9.358;2023-10-08T16:17:01;4.50;;;2.28;;
64986;SDS011;67903;52.108;9.358;2023-10-08T16:19:52;4.03;;;2.30;;
64986;SDS011;67903;52.108;9.358;2023-10-08T16:22:38;5.20;;;2.67;;
64986;SDS011;67903;52.108;9.358;2023-10-08T16:25:24;5.70;;;2.45;;
64986;SDS011;67903;52.108;9.358;2023-10-08T16:28:10;4.63;;;2.67;;
64986;SDS011;67903;52.108;9.358;2023-10-08T16:30:56;6.18;;;2.70;;
64986;SDS011;67903;52.108;9.358;2023-10-08T16:33:43;4.10;;;2.67;;
64986;SDS011;67903;52.108;9.358;2023-10-08T16:36:29;3.30;;;2.08;;
64986;SDS011;67903;52.108;9.358;2023-10-08T16:39:15;5.75;;;2.67;;
64986;SDS011;67903;52.108;9.358;2023-10-08T16:42:03;5.40;;;2.40;;
64986;SDS011;67903;52.108;9.358;2023-10-08T16:44:49;4.68;;;2.58;;
64986;SDS011;67903;52.108;9.358;2023-10-08T16:47:35;3.20;;;2.28;;
64986;SDS011;67903;52.108;9.358;2023-10-08T16:50:21;3.88;;;2.65;;
64986;SDS011;67903;52.108;9.358;2023-10-08T16:53:07;4.18;;;2.10;;
64986;SDS011;67903;52.108;9.358;2023-10-08T16:55:53;5.57;;;2.40;;
64986;SDS011;67903;52.108;9.358;2023-10-08T16:58:38;4.50;;;2.60;;
64986;SDS011;67903;52.108;9.358;2023-10-08T17:01:23;4.97;;;2.90;;
64986;SDS011;67903;52.108;9.358;2023-10-08T17:04:10;7.35;;;3.28;;
64986;SDS011;67903;52.108;9.358;2023-10-08T17:06:58;7.88;;;3.15;;